Flight Track Log - Related Links

Times and Time Zones

All times are in EDT time to prevent confusion due to time zone crossing. See the TMC855 flight status page for this flight to view local times or setup timezone preferences in your user account.

Time Position Orientation Groundspeed Altitude Reporting Facility
EDT Latitude Longitude Course Direction KTS MPH feet Rate Location/Type
Sun 06:06:22 PM 29.6478 -95.2853 244° Southwest 154 177 700  Level Houston Center
Sun 06:07:29 PM 29.6236 -95.3433 244° Southwest 235 270 4,400 3,027 Climbing Houston Center
Sun 06:08:13 PM 29.5886 -95.3603 203° Southwest 237 273 6,300 3,226 Climbing Houston Center
Sun 06:09:15 PM 29.5181 -95.3658 184° South 257 296 10,100 3,677 Climbing Houston Center
Sun 06:10:17 PM 29.4978 -95.2792 105° East 269 310 13,900 3,024 Climbing Houston Center
Sun 06:11:20 PM 29.5153 -95.1922 77° East 286 329 16,400 2,352 Climbing Houston Center
Sun 06:12:22 PM 29.5406 -95.0947 73° East 315 362 18,800 2,323 Climbing Houston Center
Sun 06:13:24 PM 29.5656 -94.9936 74° East 333 383 21,200 2,274 Climbing Houston Center
Sun 06:14:26 PM 29.5978 -94.8597 74° East 362 417 23,500 1,984 Climbing Houston Center
Sun 06:15:28 PM 29.6269 -94.7361 75° East 400 460 25,300 1,694 Climbing Houston Center
Sun 06:16:30 PM 29.6581 -94.6064 75° East 419 482 27,000 1,645 Climbing Houston Center
Sun 06:17:32 PM 29.6900 -94.4722 75° East 434 499 28,700 968 Climbing Houston Center
Sun 06:18:34 PM 29.7136 -94.3261 79° East 466 536 29,000 339 Climbing Houston Center
Sun 06:19:36 PM 29.6983 -94.1408 95° East 498 573 29,400 1,065 Climbing Houston Center
Sun 06:20:38 PM 29.6856 -93.9842 95° East 494 568 31,200 1,694 Climbing Houston Center
Sun 06:21:40 PM 29.6850 -93.8311 90° East 483 556 32,900 1,540 Climbing Houston Center
Sun 06:23:00 PM 29.6793 -93.6551 99° East  Level FlightAware Approximate
Sun 06:23:45 PM 29.6811 -93.4992 99° East 474 545 36,000  Level Houston Center
Sun 06:24:47 PM 29.6789 -93.3472 91° East 478 550 37,200 1,210 Climbing Houston Center
Sun 06:25:49 PM 29.6772 -93.1986 91° East 472 543 38,500 823 Climbing Houston Center
Sun 06:26:51 PM 29.6750 -93.0500 91° East 469 540 38,900 194 Climbing Houston Center
Sun 06:27:53 PM 29.6714 -92.8950 91° East 484 557 38,900  Level Houston Center
Sun 06:28:55 PM 29.6661 -92.6994 92° East 511 588 38,900  Level Houston Center
Sun 06:29:57 PM 29.6381 -92.5358 101° East 522 601 38,900  Level Houston Center
Sun 06:30:59 PM 29.6094 -92.3750 102° East 518 596 38,900  Level Houston Center
Sun 06:32:01 PM 29.5797 -92.2144 102° East 516 594 38,900  Level Houston Center
Sun 06:33:03 PM 29.5511 -92.0569 102° East 509 586 38,900  Level Houston Center
Sun 06:34:05 PM 29.5214 -91.8997 102° East 506 582 38,900  Level Houston Center
Sun 06:35:07 PM 29.4864 -91.7128 102° East 502 578 38,900  Level Houston Center
Sun 06:36:09 PM 29.4608 -91.5794 102° East 497 572 38,900  Level Houston Center
Sun 06:37:11 PM 29.4264 -91.3947 102° East 497 572 38,900  Level Houston Center
Sun 06:38:13 PM 29.3972 -91.2417 102° East 494 568 38,900  Level Houston Center
Sun 06:39:15 PM 29.3675 -91.0886 103° East 492 566 38,900  Level Houston Center
Sun 06:40:17 PM 29.3383 -90.9361 102° East 494 568 38,900  Level Houston Center
Sun 06:41:19 PM 29.3083 -90.7839 103° East 492 566 38,900  Level Houston Center
Sun 06:42:22 PM 29.2719 -90.5986 103° East 498 573 38,900  Level Houston Center
Sun 06:43:24 PM 29.2411 -90.4433 103° East 502 578 38,900  Level Houston Center
Sun 06:44:26 PM 29.2097 -90.2883 103° East 502 578 38,900  Level Houston Center
Sun 06:45:28 PM 29.1789 -90.1314 103° East 507 583 38,900  Level Houston Center
Sun 06:46:30 PM 29.1472 -89.9775 103° East 502 578 38,900  Level Houston Center
Sun 06:47:32 PM 29.1156 -89.8208 103° East 507 583 38,900  Level Houston Center
Sun 06:48:34 PM 29.0772 -89.6347 103° East 504 580 38,900  Level Houston Center
Sun 06:49:36 PM 29.0456 -89.4775 103° East 509 586 38,900  Level Houston Center
Sun 06:50:38 PM 29.0133 -89.3239 103° East 504 580 38,900  Level Houston Center
Sun 06:51:40 PM 28.9825 -89.1689 103° East 503 579 38,900  Level Houston Center
Sun 06:52:42 PM 28.9494 -89.0161 104° East 500 575 38,900  Level Houston Center
Sun 06:53:44 PM 28.9108 -88.8322 103° East 499 574 38,900  Level Houston Center
Sun 06:54:46 PM 28.8772 -88.6769 104° East 503 579 38,900  Level Houston Center
Sun 06:55:48 PM 28.8356 -88.5272 108° East 499 574 38,900  Level Houston Center
Sun 06:56:50 PM 28.7942 -88.3769 107° East 499 574 38,900  Level Houston Center
Sun 06:57:52 PM 28.7514 -88.2272 108° East 498 573 38,900  Level Houston Center
Sun 06:58:54 PM 28.7050 -88.0611 108° East 499 574 38,900  Level Houston Center
Sun 06:59:56 PM 28.6678 -87.9092 106° East 500 575 38,900  Level Houston Center
Sun 07:00:58 PM 28.6478 -87.7525 98° East 502 578 38,900  Level Houston Center
Sun 07:02:00 PM 28.6200 -87.5647 100° East 503 579 38,900  Level Houston Center
Sun 07:02:39 PM 28.6108 -87.4728 96° East 492 566 38,900  Level Jacksonville Center
Sun 07:03:39 PM 28.5831 -87.3083 101° East 508 585 38,900  Level Jacksonville Center
Sun 07:04:39 PM 28.5633 -87.1586 98° East 503 579 38,900  Level Jacksonville Center
Sun 07:05:39 PM 28.5372 -86.9992 101° East 503 579 38,900  Level Jacksonville Center
Sun 07:06:39 PM 28.5169 -86.8447 98° East 503 579 38,900  Level Jacksonville Center
Sun 07:07:39 PM 28.4906 -86.6831 100° East 509 586 38,900  Level Jacksonville Center
Sun 07:08:39 PM 28.4678 -86.5267 99° East 509 586 38,900  Level Jacksonville Center
Sun 07:09:39 PM 28.4431 -86.3697 100° East 504 580 38,900  Level Jacksonville Center
Sun 07:10:39 PM 28.4178 -86.2156 101° East 504 580 38,900 -150 Level Jacksonville Center
Sun 07:11:39 PM 28.3950 -86.0519 99° East 509 586 38,600 -655 Descending Jacksonville Center
Sun 07:12:38 PM 28.3714 -85.9003 100° East 504 580 37,600 -1,050 Descending Jacksonville Center
Sun 07:13:39 PM 28.3478 -85.7511 100° East 498 573 36,500 -1,041 Descending Jacksonville Center
Sun 07:14:39 PM 28.3239 -85.5947 100° East 498 573 35,500 -1,050 Descending Jacksonville Center
Sun 07:15:39 PM 28.3000 -85.4433 100° East 483 556 34,400 -1,067 Descending Jacksonville Center
Sun 07:17:22 PM 28.2642 -85.2064 100° East 505 581 32,600 -1,252 Descending Miami Center
Sun 07:18:22 PM 28.2392 -85.0586 101° East 485 558 31,000 -1,850 Descending Miami Center
Sun 07:19:22 PM 28.2161 -84.9136 100° East 472 543 28,900 -2,200 Descending Miami Center
Sun 07:20:22 PM 28.1892 -84.7658 102° East 472 543 26,600 -1,950 Descending Miami Center
Sun 07:21:22 PM 28.1692 -84.6328 100° East 462 532 25,000 -850 Descending Miami Center
Sun 07:22:22 PM 28.1433 -84.4922 102° East 454 522 24,900 -50 Descending Miami Center
Sun 07:23:22 PM 28.1175 -84.3542 102° East 454 522 24,900  Level Miami Center
Sun 07:24:22 PM 28.0911 -84.2161 102° East 454 522 24,900  Level Miami Center
Sun 07:25:22 PM 28.0733 -84.0761 98° East 454 522 24,900 -900 Level Miami Center
Sun 07:26:22 PM 28.0467 -83.9406 103° East 454 522 23,100 -2,100 Descending Miami Center
Sun 07:28:00 PM 28.0073 -83.7284 102° East  Level FlightAware Approximate
Sun 07:28:22 PM 27.9358 -83.7317 102° East 389 448 18,600  Level Miami Center
Sun 07:29:22 PM 27.8492 -83.6725 149° Southeast 384 442 16,400 -2,000 Descending Miami Center
Sun 07:30:22 PM 27.8083 -83.5644 113° Southeast 362 417 14,600 -1,550 Descending Miami Center
Sun 07:31:22 PM 27.8283 -83.4461 79° East 333 383 13,300 -1,250 Descending Miami Center
Sun 07:32:22 PM 27.8625 -83.3356 71° East 343 395 12,100 -1,300 Descending Miami Center
Sun 07:33:22 PM 27.8944 -83.2269 72° East 356 410 10,700 -1,200 Descending Miami Center
Sun 07:34:22 PM 27.9278 -83.1328 68° East 344 396 9,700 -1,100 Descending Miami Center
Sun 07:35:22 PM 27.9669 -83.0478 62° Northeast 323 372 8,500 -1,150 Descending Miami Center
Sun 07:36:22 PM 28.0061 -82.9608 63° Northeast 310 357 7,400 -1,150 Descending Miami Center
Sun 07:37:22 PM 28.0389 -82.8756 66° East 296 341 6,200 -1,200 Descending Miami Center
Sun 07:38:22 PM 28.0675 -82.7947 68° East 285 328 5,000 -650 Descending Miami Center
Sun 07:39:22 PM 28.0478 -82.7139 105° East 265 305 4,900  Descending Miami Center
Sun 07:40:23 PM 28.0000 -82.6333 124° Southeast 277 319 5,000 -50 Climbing Tampa TRACON
Sun 07:41:23 PM 27.9333 -82.6167 168° South 213 245 4,800 -526 Descending Tampa TRACON
Sun 07:42:17 PM 27.8833 -82.6167 180° South 203 234 4,000 -900 Descending Tampa TRACON
Sun 07:43:23 PM 27.8167 -82.6167 180° South 196 226 3,000 -650 Descending Tampa TRACON
Sun 07:44:17 PM 27.8000 -82.5833 119° Southeast 189 217 2,700 -211 Descending Tampa TRACON
Sun 07:45:17 PM 27.8500 -82.5500 31° Northeast 175 201 2,600 -429 Descending Tampa TRACON
Sun 07:46:23 PM 27.9000 -82.5500 360° North 158 182 1,800 -810 Descending Tampa TRACON
Sun 07:47:23 PM 27.9333 -82.5500 360° North 126 145 900 -900 Descending Tampa TRACON
Sun 07:49:00 PM 27.9667 -82.5167 19° North  Level FlightAware Approximate
Sun 07:56:00 PM 27.9755 -82.5332 19° North  Level Estimated
Sun 07:57:00 PM 27.9755 -82.5332 19° North  Level Estimated

Login

Don't have an account? Register now (free) for customized features, flight alerts, and more!